Time;durP1;ratioP1;P1;durP2;ratioP2;P2;SDS_P1;SDS_P2;PMS_P1;PMS_P2;Temp;Humidity;BMP_temperature;BMP_pressure;BME280_temperature;BME280_humidity;BME280_pressure;Samples;Min_cycle;Max_cycle;Signal;HPM_P1;HPM_P2
2022/06/21 00:01:22;;;;;;;2.92;2.50;;;;;;;24.92;46.38;100059.72;1708869;83;21016;-79
2022/06/21 00:03:49;;;;;;;2.45;2.20;;;;;;;24.90;46.37;100049.55;1726120;81;21488;-80
2022/06/21 00:06:23;;;;;;;2.90;2.10;;;;;;;24.91;46.39;100048.36;1703039;83;21086;-79
2022/06/21 00:08:49;;;;;;;3.70;2.67;;;;;;;24.91;46.38;100058.69;1698906;83;21233;-79
2022/06/21 00:11:29;;;;;;;3.67;2.58;;;;;;;24.91;46.41;100051.14;1702440;83;21145;-79
2022/06/21 00:14:01;;;;;;;3.85;2.30;;;;;;;24.91;46.41;100056.70;1700432;83;21079;-79
2022/06/21 00:16:29;;;;;;;2.55;1.98;;;;;;;24.90;46.41;100051.53;1709759;81;21055;-79
2022/06/21 00:18:56;;;;;;;3.95;2.45;;;;;;;24.90;46.41;100057.91;1700626;81;20971;-79
2022/06/21 00:21:27;;;;;;;3.90;2.27;;;;;;;24.91;46.44;100053.11;1689253;83;21848;-79
2022/06/21 00:23:54;;;;;;;2.80;2.30;;;;;;;24.90;46.45;100051.53;1701741;81;21040;-78
2022/06/21 00:26:22;;;;;;;3.98;2.30;;;;;;;24.90;46.45;100043.98;1709857;83;21101;-79
2022/06/21 00:28:49;;;;;;;2.75;2.30;;;;;;;24.90;46.47;100044.57;1704321;82;21529;-78
2022/06/21 00:31:20;;;;;;;3.37;2.37;;;;;;;24.90;46.46;100045.38;1715776;82;20994;-80
2022/06/21 00:33:47;;;;;;;3.22;2.47;;;;;;;24.90;46.47;100044.57;1722711;82;21303;-80
2022/06/21 00:36:30;;;;;;;4.00;2.52;;;;;;;24.91;46.50;100047.55;1712707;83;21505;-80
2022/06/21 00:38:57;;;;;;;2.60;2.20;;;;;;;24.91;46.48;100041.98;1726049;82;21055;-79
2022/06/21 00:41:44;;;;;;;3.77;2.37;;;;;;;24.90;46.49;100043.98;1711583;81;21115;-80
2022/06/21 00:44:27;;;;;;;5.15;2.25;;;;;;;24.90;46.51;100034.25;1699751;82;21087;-79
2022/06/21 00:47:16;;;;;;;3.33;2.40;;;;;;;24.89;46.50;100038.78;1713498;83;21479;-79
2022/06/21 00:49:55;;;;;;;3.40;2.42;;;;;;;24.89;46.54;100034.02;1717085;81;21461;-78
2022/06/21 00:52:35;;;;;;;3.35;2.45;;;;;;;24.89;46.53;100026.26;1699826;83;21879;-78
2022/06/21 00:55:10;;;;;;;2.87;2.20;;;;;;;24.88;46.54;100021.27;1717078;80;21295;-79
2022/06/21 00:57:44;;;;;;;3.50;2.60;;;;;;;24.88;46.55;100026.03;1697039;84;21123;-77
2022/06/21 01:00:41;;;;;;;3.80;2.08;;;;;;;24.87;46.58;100011.89;1702531;83;21047;-77
2022/06/21 01:03:12;;;;;;;2.20;1.92;;;;;;;24.88;46.60;100012.12;1709246;81;21047;-79
2022/06/21 01:05:41;;;;;;;3.85;2.40;;;;;;;24.87;46.61;100010.50;1739135;81;21157;-78
2022/06/21 01:08:08;;;;;;;2.92;2.40;;;;;;;24.86;46.62;100004.16;1707867;83;21047;-79
2022/06/21 01:10:35;;;;;;;4.08;2.30;;;;;;;24.86;46.63;99997.78;1721001;83;21008;-78
2022/06/21 01:13:09;;;;;;;4.10;2.35;;;;;;;24.86;46.66;99992.22;1724700;83;21711;-79
2022/06/21 01:15:43;;;;;;;3.35;2.20;;;;;;;24.87;46.66;99999.38;1722150;80;21008;-79
2022/06/21 01:18:10;;;;;;;2.92;2.42;;;;;;;24.86;46.67;99992.22;1726981;81;21422;-79
2022/06/21 01:20:39;;;;;;;4.58;2.27;;;;;;;24.88;46.67;99994.03;1697214;84;21072;-80
2022/06/21 01:23:46;;;;;;;3.02;2.37;;;;;;;24.86;46.67;99990.24;1705024;81;21027;-78
2022/06/21 01:26:41;;;;;;;2.80;2.10;;;;;;;24.86;46.68;99988.85;1715409;82;21176;-79
2022/06/21 01:29:16;;;;;;;3.37;2.35;;;;;;;24.85;46.67;99987.23;1716792;81;21640;-80
2022/06/21 01:31:43;;;;;;;3.37;2.40;;;;;;;24.85;46.67;99988.63;1668249;83;21051;-79
2022/06/21 01:34:15;;;;;;;2.80;2.08;;;;;;;24.86;46.69;99985.27;1698677;83;21518;-79
2022/06/21 01:36:52;;;;;;;3.15;2.42;;;;;;;24.85;46.70;99976.66;1697294;84;21552;-79
2022/06/21 01:39:25;;;;;;;2.47;2.15;;;;;;;24.85;46.72;99975.27;1717447;83;21225;-79
2022/06/21 01:41:56;;;;;;;2.45;2.05;;;;;;;24.85;46.75;99976.11;1727918;81;21095;-79
2022/06/21 01:44:33;;;;;;;2.75;2.22;;;;;;;24.85;46.75;99973.88;1713427;83;21083;-79
2022/06/21 01:47:01;;;;;;;3.83;2.47;;;;;;;24.85;46.78;99976.11;1726032;81;22137;-79
2022/06/21 01:49:29;;;;;;;3.17;2.30;;;;;;;24.86;46.76;99973.55;1704872;81;21589;-79
2022/06/21 01:52:02;;;;;;;4.53;2.42;;;;;;;24.85;46.78;99970.54;1696865;84;21576;-80
2022/06/21 01:54:32;;;;;;;4.20;2.30;;;;;;;24.85;46.80;99962.74;1710474;80;21079;-79
2022/06/21 01:56:58;;;;;;;2.52;2.00;;;;;;;24.85;46.82;99959.96;1699510;81;21528;-79
2022/06/21 01:59:32;;;;;;;3.25;2.20;;;;;;;24.85;46.82;99955.23;1700407;83;21545;-79
2022/06/21 02:02:11;;;;;;;2.67;2.12;;;;;;;24.85;46.83;99964.13;1711700;80;21573;-78
2022/06/21 02:04:55;;;;;;;3.62;2.15;;;;;;;24.85;46.84;99961.35;1709889;82;21173;-79
2022/06/21 02:07:28;;;;;;;2.45;2.05;;;;;;;24.85;46.87;99962.74;1696640;83;21161;-79
2022/06/21 02:10:24;;;;;;;4.55;2.30;;;;;;;24.85;46.85;99962.20;1702623;81;21377;-80
2022/06/21 02:13:08;;;;;;;3.00;2.27;;;;;;;24.85;46.88;99958.57;1703375;81;21108;-79
2022/06/21 02:15:58;;;;;;;4.28;2.35;;;;;;;24.84;46.89;99957.77;1711686;82;21388;-79
2022/06/21 02:18:24;;;;;;;2.42;2.20;;;;;;;24.84;46.90;99957.77;1734135;81;21597;-79
2022/06/21 02:21:01;;;;;;;3.80;2.27;;;;;;;24.84;46.91;99960.55;1709359;83;21462;-79
2022/06/21 02:23:28;;;;;;;5.12;2.60;;;;;;;24.84;46.94;99962.52;1701424;81;21043;-79
2022/06/21 02:25:56;;;;;;;2.77;2.00;;;;;;;24.84;46.96;99954.98;1709571;81;21609;-79
2022/06/21 02:28:22;;;;;;;4.95;2.15;;;;;;;24.85;46.96;99957.18;1699711;82;21040;-79
2022/06/21 02:30:55;;;;;;;2.50;2.17;;;;;;;24.85;46.97;99954.40;1713113;83;21561;-79
2022/06/21 02:33:28;;;;;;;2.92;2.12;;;;;;;24.84;46.98;99953.59;1723209;81;21106;-79
2022/06/21 02:36:08;;;;;;;3.55;2.05;;;;;;;24.85;47.01;99955.23;1709777;83;21557;-80
2022/06/21 02:38:50;;;;;;;2.42;1.85;;;;;;;24.85;47.00;99946.89;1701162;81;21047;-79
2022/06/21 02:41:24;;;;;;;2.35;1.90;;;;;;;24.85;47.01;99944.66;1709736;83;21114;-79
2022/06/21 02:44:38;;;;;;;3.62;1.98;;;;;;;24.85;47.00;99945.50;1697281;80;21355;-80
2022/06/21 02:47:17;;;;;;;4.03;2.40;;;;;;;24.86;47.01;99943.52;1703161;81;21482;-79
2022/06/21 02:49:57;;;;;;;3.08;2.50;;;;;;;24.84;47.01;99918.00;1702940;81;20992;-79
2022/06/21 02:52:33;;;;;;;2.77;2.00;;;;;;;24.83;47.01;99919.17;1673475;83;21051;-79
2022/06/21 02:55:24;;;;;;;4.47;2.08;;;;;;;24.83;47.02;99911.63;1709475;82;21036;-79
2022/06/21 02:58:17;;;;;;;2.80;2.02;;;;;;;24.82;47.06;99911.44;1658281;86;21832;-79
2022/06/21 03:00:43;;;;;;;3.40;2.17;;;;;;;24.83;47.03;99912.21;1645932;86;21404;-79
2022/06/21 03:03:16;;;;;;;2.40;1.80;;;;;;;24.81;47.05;99917.36;1652473;86;21578;-80
2022/06/21 03:05:43;;;;;;;2.90;2.00;;;;;;;24.83;47.08;99913.60;1640765;85;21153;-79
2022/06/21 03:08:10;;;;;;;3.87;2.65;;;;;;;24.81;47.09;99902.86;1646149;86;21041;-79
2022/06/21 03:10:40;;;;;;;2.75;2.20;;;;;;;24.81;47.11;99909.81;1637328;85;21753;-79
2022/06/21 03:13:22;;;;;;;2.60;2.17;;;;;;;24.81;47.12;99904.25;1634404;85;21104;-79
2022/06/21 03:15:55;;;;;;;3.00;2.15;;;;;;;24.81;47.13;99905.64;1646178;86;21050;-79
2022/06/21 03:18:30;;;;;;;2.47;2.08;;;;;;;24.81;47.16;99902.86;1654225;85;21107;-79
2022/06/21 03:20:56;;;;;;;2.42;2.10;;;;;;;24.82;47.16;99899.50;1643544;86;21049;-79
2022/06/21 03:23:23;;;;;;;3.10;2.30;;;;;;;24.82;47.17;99897.52;1631778;85;21143;-79
2022/06/21 03:25:56;;;;;;;2.60;2.25;;;;;;;24.83;47.21;99894.13;1640596;85;21070;-79
2022/06/21 03:28:34;;;;;;;2.65;1.98;;;;;;;24.82;47.23;99892.55;1635768;86;21034;-79
2022/06/21 03:31:21;;;;;;;2.87;2.30;;;;;;;24.83;47.22;99898.30;1627488;86;21083;-79
2022/06/21 03:33:54;;;;;;;2.60;2.12;;;;;;;24.83;47.23;99896.33;1638912;86;21085;-79
2022/06/21 03:36:24;;;;;;;2.47;1.80;;;;;;;24.83;47.24;99892.16;1630292;85;21980;-79
2022/06/21 03:39:11;;;;;;;4.22;2.30;;;;;;;24.83;47.25;99881.03;1640448;85;21066;-79
2022/06/21 03:41:46;;;;;;;;;;;;;;;24.84;47.24;99889.59;1619591;87;21271;-79
2022/06/21 03:44:36;;;;;;;2.30;2.10;;;;;;;24.83;47.27;99881.61;1632091;85;20199;-79
2022/06/21 03:47:24;;;;;;;2.65;2.27;;;;;;;24.82;47.23;99880.83;1634251;85;21144;-79
2022/06/21 03:50:08;;;;;;;3.60;2.25;;;;;;;24.82;47.23;99878.05;1639578;85;21893;-79
2022/06/21 03:52:49;;;;;;;2.70;2.20;;;;;;;24.82;47.25;99870.29;1629207;84;21438;-79
2022/06/21 03:55:45;;;;;;;2.90;2.05;;;;;;;24.82;47.24;99869.70;1639561;86;20974;-79
2022/06/21 03:58:35;;;;;;;2.58;1.90;;;;;;;24.83;47.25;99865.72;1634552;86;21053;-79
2022/06/21 04:01:13;;;;;;;2.58;2.22;;;;;;;24.83;47.25;99874.66;1647402;86;21078;-79
2022/06/21 04:04:11;;;;;;;3.40;2.10;;;;;;;24.83;47.28;99874.07;1646402;86;21584;-79
2022/06/21 04:07:04;;;;;;;2.75;2.10;;;;;;;24.82;47.28;99872.48;1666036;84;21065;-80
2022/06/21 04:10:02;;;;;;;3.25;2.10;;;;;;;24.83;47.27;99868.51;1675933;84;21080;-79
2022/06/21 04:12:54;;;;;;;2.72;2.17;;;;;;;24.84;47.25;99867.92;1681192;84;21072;-79
2022/06/21 04:15:50;;;;;;;2.40;1.87;;;;;;;24.82;47.26;99873.88;1668213;85;21546;-79
2022/06/21 04:18:27;;;;;;;3.20;2.40;;;;;;;24.84;47.25;99877.66;1660389;84;21190;-79
2022/06/21 04:21:09;;;;;;;4.12;2.25;;;;;;;24.83;47.28;99877.44;1673236;85;21104;-79
2022/06/21 04:23:56;;;;;;;3.35;2.10;;;;;;;24.83;47.28;99867.11;1675762;85;21108;-79
2022/06/21 04:26:34;;;;;;;3.58;2.10;;;;;;;24.84;47.29;99874.88;1660250;85;21077;-79
2022/06/21 04:29:06;;;;;;;3.58;2.17;;;;;;;24.83;47.30;99870.48;1667781;85;21060;-78
2022/06/21 04:31:43;;;;;;;3.95;2.30;;;;;;;24.84;47.30;99873.48;1659002;85;21145;-78
2022/06/21 04:34:20;;;;;;;3.10;2.27;;;;;;;24.84;47.31;99877.08;1661137;84;21009;-78
2022/06/21 04:37:00;;;;;;;2.85;2.20;;;;;;;24.86;47.32;99886.49;1682592;85;21163;-79
2022/06/21 04:39:38;;;;;;;4.58;2.27;;;;;;;24.85;47.33;99875.95;1663150;84;21100;-78
2022/06/21 04:42:22;;;;;;;4.95;2.60;;;;;;;24.85;47.36;99880.67;1680297;83;21045;-78
2022/06/21 04:45:12;;;;;;;5.45;2.65;;;;;;;24.82;47.38;99873.07;1663100;85;22424;-79
2022/06/21 04:47:52;;;;;;;7.15;3.60;;;;;;;24.78;47.48;99872.20;1683701;82;21103;-78
2022/06/21 04:50:27;;;;;;;5.78;2.87;;;;;;;24.74;47.55;99873.49;1683913;83;21107;-79
2022/06/21 04:53:04;;;;;;;5.42;3.70;;;;;;;24.72;47.63;99876.44;1684668;84;21530;-78
2022/06/21 04:55:51;;;;;;;5.58;3.67;;;;;;;24.68;47.70;99879.16;1668854;84;21151;-79
2022/06/21 04:58:17;;;;;;;7.12;4.03;;;;;;;24.62;47.81;99877.02;1682233;82;22021;-78
2022/06/21 05:00:43;;;;;;;7.37;4.53;;;;;;;24.56;47.93;99866.80;1680048;84;21072;-78
2022/06/21 05:03:30;;;;;;;5.47;4.70;;;;;;;24.50;48.08;99869.64;1684733;83;21585;-79
2022/06/21 05:05:57;;;;;;;9.88;5.42;;;;;;;24.42;48.24;99857.58;1664586;84;21598;-79
2022/06/21 05:08:23;;;;;;;11.18;4.85;;;;;;;24.36;48.42;99849.88;1658018;83;21644;-79
2022/06/21 05:10:54;;;;;;;6.37;4.87;;;;;;;24.31;48.56;99856.56;1699491;83;22078;-79
2022/06/21 05:13:35;;;;;;;8.35;5.10;;;;;;;24.27;48.74;99859.86;1705954;82;21052;-79
2022/06/21 05:16:06;;;;;;;11.75;5.17;;;;;;;24.24;48.83;99852.22;1687292;83;21114;-78
2022/06/21 05:18:43;;;;;;;9.70;4.75;;;;;;;24.23;48.94;99845.66;1712397;81;21040;-80
2022/06/21 05:21:24;;;;;;;6.47;4.58;;;;;;;24.22;48.98;99839.88;1688858;84;21055;-79
2022/06/21 05:23:50;;;;;;;;;;;;;;;24.22;49.06;99848.21;1707912;82;21205;-76
2022/06/21 05:26:24;;;;;;;9.83;4.28;;;;;;;24.23;49.08;99845.05;1688738;85;20205;-79
2022/06/21 05:28:58;;;;;;;5.83;4.65;;;;;;;24.21;49.13;99840.45;1697775;83;21119;-78
2022/06/21 05:31:27;;;;;;;6.17;4.15;;;;;;;24.24;49.17;99835.55;1716607;83;21491;-79
2022/06/21 05:34:04;;;;;;;7.75;4.75;;;;;;;24.26;49.14;99834.61;1694311;83;21098;-78
2022/06/21 05:36:40;;;;;;;10.70;4.08;;;;;;;24.31;49.12;99837.69;1688547;84;21525;-78
2022/06/21 05:39:20;;;;;;;7.87;3.55;;;;;;;24.37;49.07;99837.02;1697486;82;21111;-78
2022/06/21 05:41:44;;;;;;;8.23;3.70;;;;;;;24.42;49.00;99833.95;1693609;82;21042;-79
2022/06/21 05:44:27;;;;;;;8.78;4.20;;;;;;;24.45;48.98;99837.38;1714414;82;21056;-79
2022/06/21 05:46:57;;;;;;;10.55;4.03;;;;;;;24.50;48.90;99839.86;1715575;82;21135;-80
2022/06/21 05:49:27;;;;;;;6.28;3.80;;;;;;;24.54;48.79;99846.88;1681673;83;21124;-79
2022/06/21 05:51:55;;;;;;;9.23;4.00;;;;;;;24.60;48.74;99845.42;1671126;83;21948;-80
2022/06/21 05:54:25;;;;;;;6.55;3.85;;;;;;;24.63;48.66;99832.75;1674581;85;21772;-78
2022/06/21 05:56:51;;;;;;;7.08;3.67;;;;;;;24.69;48.58;99836.85;1673943;85;21087;-78
2022/06/21 05:59:19;;;;;;;5.72;4.37;;;;;;;24.71;48.55;99828.92;1677068;84;21480;-79
2022/06/21 06:01:54;;;;;;;6.62;4.10;;;;;;;24.73;48.61;99834.94;1665228;84;21111;-78
2022/06/21 06:04:45;;;;;;;6.00;3.87;;;;;;;24.74;48.65;99840.11;1676993;84;21075;-80
2022/06/21 06:07:20;;;;;;;8.43;4.10;;;;;;;24.77;48.64;99842.77;1675536;83;21064;-78
2022/06/21 06:09:47;;;;;;;8.33;5.37;;;;;;;24.78;48.64;99839.59;1677973;85;21548;-79
2022/06/21 06:12:23;;;;;;;9.50;5.10;;;;;;;24.81;48.69;99842.24;1675185;83;21089;-79
2022/06/21 06:15:13;;;;;;;6.95;4.62;;;;;;;24.80;48.76;99841.44;1679035;85;21125;-79
2022/06/21 06:18:11;;;;;;;9.38;4.62;;;;;;;24.81;48.76;99843.63;1661929;83;21076;-78
2022/06/21 06:20:58;;;;;;;7.87;4.58;;;;;;;24.82;48.69;99840.49;1678160;83;21132;-79
2022/06/21 06:23:38;;;;;;;8.78;5.45;;;;;;;24.86;48.56;99842.78;1693449;83;21068;-80
2022/06/21 06:26:15;;;;;;;6.30;4.37;;;;;;;24.89;48.54;99839.84;1680288;83;21082;-79
2022/06/21 06:29:12;;;;;;;6.37;5.30;;;;;;;24.91;48.58;99840.25;1694752;83;21044;-79
2022/06/21 06:31:55;;;;;;;12.53;5.40;;;;;;;24.91;48.56;99841.06;1668093;84;21108;-79
2022/06/21 06:34:28;;;;;;;9.18;5.20;;;;;;;24.94;48.60;99842.31;1690774;83;21080;-79
2022/06/21 06:36:57;;;;;;;7.35;5.80;;;;;;;24.96;48.63;99845.52;1685729;83;21635;-78
2022/06/21 06:39:28;;;;;;;11.65;5.35;;;;;;;24.96;48.71;99847.72;1682282;83;21577;-79
2022/06/21 06:42:00;;;;;;;7.97;5.45;;;;;;;24.97;48.74;99843.77;1683645;83;21282;-79
2022/06/21 06:44:28;;;;;;;15.05;6.25;;;;;;;24.99;48.72;99838.63;1696094;83;21358;-78
2022/06/21 06:46:55;;;;;;;8.93;5.50;;;;;;;25.00;48.80;99843.02;1685647;82;21111;-79
2022/06/21 06:49:35;;;;;;;7.47;6.08;;;;;;;25.01;48.92;99847.42;1703082;83;22147;-80
2022/06/21 06:52:24;;;;;;;10.23;5.55;;;;;;;25.03;48.97;99842.08;1707354;83;21470;-78
2022/06/21 06:55:16;;;;;;;10.75;5.10;;;;;;;25.03;49.01;99844.28;1714812;83;21174;-79
2022/06/21 06:57:57;;;;;;;9.18;5.40;;;;;;;25.06;49.01;99853.27;1706935;83;21638;-79
2022/06/21 07:00:36;;;;;;;12.07;5.85;;;;;;;25.08;48.99;99854.30;1686792;84;21061;-79
2022/06/21 07:03:19;;;;;;;9.28;6.17;;;;;;;25.08;49.08;99849.51;1710613;82;21099;-79
2022/06/21 07:06:23;;;;;;;8.28;5.35;;;;;;;25.10;49.22;99847.76;1716434;81;21118;-78
2022/06/21 07:09:37;;;;;;;9.48;5.47;;;;;;;25.11;49.28;99846.00;1700075;82;21972;-79
2022/06/21 07:12:25;;;;;;;8.03;6.15;;;;;;;25.12;49.31;99851.77;1694084;82;21087;-78
2022/06/21 07:14:51;;;;;;;9.98;6.08;;;;;;;25.14;49.27;99844.45;1716099;82;21035;-79
2022/06/21 07:17:47;;;;;;;8.40;6.30;;;;;;;25.16;49.35;99843.50;1710456;82;21047;-78
2022/06/21 07:20:33;;;;;;;10.20;5.85;;;;;;;25.17;49.44;99833.37;1727253;82;21503;-78
2022/06/21 07:22:59;;;;;;;8.58;5.95;;;;;;;25.20;49.37;99835.43;1722069;81;21329;-79
2022/06/21 07:25:41;;;;;;;10.82;6.40;;;;;;;25.22;49.43;99842.80;1724992;81;21089;-79
2022/06/21 07:28:12;;;;;;;9.08;6.28;;;;;;;25.25;49.39;99845.45;1715072;82;21071;-79
2022/06/21 07:30:41;;;;;;;8.83;5.92;;;;;;;25.27;49.39;99853.64;1684961;83;21071;-78
2022/06/21 07:33:15;;;;;;;9.40;6.58;;;;;;;25.28;49.36;99848.30;1714234;82;21546;-79
2022/06/21 07:35:49;;;;;;;11.80;7.47;;;;;;;25.31;49.38;99843.95;1714597;82;21034;-78
2022/06/21 07:38:20;;;;;;;13.22;6.90;;;;;;;25.33;49.36;99852.75;1689758;81;21127;-79
2022/06/21 07:40:50;;;;;;;12.73;7.60;;;;;;;25.35;49.33;99848.98;1720678;82;21085;-79
2022/06/21 07:43:38;;;;;;;10.05;7.42;;;;;;;25.36;49.30;99837.48;1699061;82;21111;-78
2022/06/21 07:46:07;;;;;;;11.83;6.75;;;;;;;25.37;49.32;99838.30;1735781;82;21119;-79
2022/06/21 07:48:53;;;;;;;10.03;7.42;;;;;;;25.38;49.29;99836.51;1699951;83;21020;-79
2022/06/21 07:51:34;;;;;;;11.20;8.60;;;;;;;25.40;49.31;99836.14;1738322;81;21032;-81
2022/06/21 07:54:06;;;;;;;;;;;;;;;25.42;49.30;99833.77;1725072;81;21095;-78
2022/06/21 07:56:40;;;;;;;12.55;7.35;;;;;;;25.43;49.29;99840.37;1700062;81;20181;-79
2022/06/21 07:59:12;;;;;;;9.23;8.10;;;;;;;25.44;49.22;99832.83;1711069;82;21994;-78
2022/06/21 08:07:38;;;;;;;9.90;6.65;;;;;;;25.50;49.18;99831.93;1717535;83;21079;-77
2022/06/21 08:10:31;;;;;;;9.05;6.67;;;;;;;25.52;49.08;99829.56;1701647;82;21094;-79
2022/06/21 08:12:58;;;;;;;10.88;6.08;;;;;;;25.54;49.09;99830.03;1705880;83;21527;-79
2022/06/21 08:15:28;;;;;;;7.97;7.08;;;;;;;25.54;49.05;99826.66;1679542;84;21558;-77
2022/06/21 08:18:08;;;;;;;9.33;7.30;;;;;;;25.56;49.04;99827.08;1695329;82;21052;-78
2022/06/21 08:20:46;;;;;;;;;;;;;;;25.58;49.02;99825.32;1684315;84;21052;-79
2022/06/21 08:23:23;;;;;;;12.37;6.72;;;;;;;25.58;48.97;99815.57;1680221;83;21025;-80
2022/06/21 08:26:01;;;;;;;10.08;6.50;;;;;;;25.59;48.91;99817.19;1692655;83;21036;-79
2022/06/21 08:28:40;;;;;;;8.05;6.42;;;;;;;25.59;48.90;99820.75;1671290;81;22175;-78
2022/06/21 08:31:11;;;;;;;8.53;6.75;;;;;;;25.60;48.86;99826.54;1727845;81;21084;-78
2022/06/21 08:33:51;;;;;;;6.75;6.00;;;;;;;25.61;48.79;99827.34;1704588;83;21854;-78
2022/06/21 08:36:43;;;;;;;8.70;6.70;;;;;;;25.61;48.70;99824.56;1684160;82;21080;-79
2022/06/21 08:39:33;;;;;;;7.78;5.22;;;;;;;25.64;48.68;99834.36;1685382;84;21080;-78
2022/06/21 08:42:43;;;;;;;10.50;5.70;;;;;;;25.65;48.60;99833.19;1675623;83;21856;-78
2022/06/21 08:46:05;;;;;;;8.90;6.22;;;;;;;25.66;48.54;99832.02;1664547;86;21111;-78
2022/06/21 08:49:12;;;;;;;9.30;5.55;;;;;;;25.69;48.46;99836.02;1716286;82;20944;-78
2022/06/21 08:52:05;;;;;;;8.08;5.42;;;;;;;25.70;48.36;99834.27;1721649;81;20979;-79
2022/06/21 08:54:45;;;;;;;6.85;5.42;;;;;;;25.70;48.31;99830.09;1717372;83;21057;-77
2022/06/21 08:57:23;;;;;;;10.93;5.20;;;;;;;25.73;48.26;99828.52;1744885;80;21079;-78
2022/06/21 09:00:09;;;;;;;7.90;5.40;;;;;;;25.73;48.20;99825.73;1751900;80;21613;-82
2022/06/21 09:03:05;;;;;;;8.48;5.17;;;;;;;25.75;48.17;99826.98;1704139;80;21059;-80
2022/06/21 09:06:10;;;;;;;13.13;4.97;;;;;;;25.77;48.05;99822.41;1706512;82;21069;-78
2022/06/21 09:08:54;;;;;;;7.33;4.80;;;;;;;25.76;47.95;99818.81;1750294;80;21096;-79
2022/06/21 09:11:47;;;;;;;7.03;4.78;;;;;;;25.79;47.82;99815.30;1752618;80;21677;-79
2022/06/21 09:14:45;;;;;;;6.25;4.80;;;;;;;25.81;47.71;99813.51;1750421;81;21161;-78
2022/06/21 09:17:42;;;;;;;12.55;6.03;;;;;;;25.82;47.67;99814.53;1753587;80;21056;-80
2022/06/21 09:20:40;;;;;;;10.68;5.78;;;;;;;25.81;47.70;99812.92;1723657;80;21092;-79
2022/06/21 09:23:56;;;;;;;8.15;4.33;;;;;;;25.80;47.72;99818.89;1761670;79;21116;-80
2022/06/21 09:26:46;;;;;;;8.75;4.97;;;;;;;25.79;47.58;99817.28;1652755;85;21265;-79
2022/06/21 09:29:21;;;;;;;8.50;5.10;;;;;;;25.78;47.54;99814.27;1715948;82;21596;-78
2022/06/21 09:32:05;;;;;;;9.93;4.65;;;;;;;25.78;47.51;99810.09;1759254;80;21037;-78
2022/06/21 09:34:56;;;;;;;6.08;4.70;;;;;;;25.78;47.39;99805.33;1760592;80;21440;-78
2022/06/21 09:37:43;;;;;;;5.95;4.37;;;;;;;25.78;47.31;99805.91;1749285;80;21024;-79
2022/06/21 09:40:25;;;;;;;9.50;4.97;;;;;;;25.79;47.26;99793.59;1756683;80;22151;-78
2022/06/21 09:43:09;;;;;;;7.17;4.75;;;;;;;25.79;47.29;99799.16;1756201;80;21073;-79
2022/06/21 09:46:19;;;;;;;6.10;4.60;;;;;;;25.79;47.17;99780.47;1755760;80;21044;-79
2022/06/21 09:49:03;;;;;;;5.25;4.55;;;;;;;25.78;47.13;99772.47;1741098;81;21036;-78
2022/06/21 09:51:50;;;;;;;5.55;4.40;;;;;;;25.78;47.08;99765.52;1718225;81;21474;-79
2022/06/21 09:54:28;;;;;;;7.55;5.20;;;;;;;25.79;47.06;99754.59;1739687;81;21491;-80
2022/06/21 09:57:27;;;;;;;8.18;4.70;;;;;;;25.77;47.08;99750.77;1725775;80;21564;-80
2022/06/21 10:00:22;;;;;;;6.55;5.17;;;;;;;25.77;47.10;99754.95;1737879;81;21095;-79
2022/06/21 10:02:59;;;;;;;5.78;4.60;;;;;;;25.76;47.10;99763.67;1672473;83;21040;-79
2022/06/21 10:05:48;;;;;;;7.62;4.60;;;;;;;25.73;47.05;99755.50;1734032;80;21092;-79
2022/06/21 10:08:26;;;;;;;7.45;4.22;;;;;;;25.74;47.04;99759.09;1718098;81;22376;-80
2022/06/21 10:11:21;;;;;;;7.92;4.83;;;;;;;25.75;46.95;99756.52;1714658;81;21082;-79
2022/06/21 10:14:05;;;;;;;5.78;4.05;;;;;;;25.78;46.84;99755.76;1707077;81;21557;-82
2022/06/21 10:17:15;;;;;;;6.35;4.58;;;;;;;25.77;46.83;99745.20;1727520;81;21045;-79
2022/06/21 10:20:22;;;;;;;4.57;4.17;;;;;;;25.80;46.73;99752.02;1737657;80;21552;-79
2022/06/21 10:23:11;;;;;;;7.55;5.37;;;;;;;25.80;46.67;99747.22;1711442;81;21048;-79
2022/06/21 10:26:01;;;;;;;5.42;4.90;;;;;;;25.79;46.73;99749.02;1721219;81;21083;-80
2022/06/21 10:28:45;;;;;;;5.95;4.78;;;;;;;25.78;46.70;99749.59;1709105;83;21068;-79
2022/06/21 10:31:43;;;;;;;5.05;4.58;;;;;;;25.77;46.69;99745.20;1703884;81;21011;-80
2022/06/21 10:34:38;;;;;;;8.63;4.87;;;;;;;25.76;46.64;99740.00;1724804;81;21086;-81
2022/06/21 10:37:13;;;;;;;4.83;4.20;;;;;;;25.76;46.61;99738.60;1713088;81;21534;-79
2022/06/21 10:40:07;;;;;;;4.53;4.12;;;;;;;25.76;46.64;99730.24;1706568;81;21035;-79
2022/06/21 10:42:54;;;;;;;6.03;3.72;;;;;;;25.74;46.65;99722.88;1721847;81;21541;-79
2022/06/21 10:45:52;;;;;;;4.03;3.67;;;;;;;25.74;46.64;99723.67;1704833;81;21161;-82
2022/06/21 10:48:39;;;;;;;6.90;4.65;;;;;;;25.77;46.51;99720.13;1712658;81;21162;-79
2022/06/21 10:51:45;;;;;;;5.95;4.28;;;;;;;25.77;46.48;99725.70;1719694;80;21493;-79
2022/06/21 10:55:04;;;;;;;5.85;4.05;;;;;;;25.77;46.47;99707.59;1697359;83;21580;-79
2022/06/21 10:58:12;;;;;;;4.47;3.98;;;;;;;25.78;46.40;99718.14;1709082;82;21028;-80
2022/06/21 11:01:17;;;;;;;9.08;4.45;;;;;;;25.77;46.35;99704.80;1650781;85;21104;-79
2022/06/21 11:04:06;;;;;;;5.37;4.15;;;;;;;25.77;46.25;99711.77;1654939;86;21140;-79
2022/06/21 11:07:15;;;;;;;6.12;4.17;;;;;;;25.76;46.21;99703.78;1704387;81;21573;-81
2022/06/21 11:10:18;;;;;;;5.60;3.80;;;;;;;25.76;46.21;99696.81;1699880;81;21071;-79
2022/06/21 11:13:04;;;;;;;4.83;3.80;;;;;;;25.77;46.21;99698.42;1695907;83;21083;-79
2022/06/21 11:16:00;;;;;;;7.47;3.80;;;;;;;25.77;46.19;99695.64;1706447;81;21136;-79
2022/06/21 11:18:57;;;;;;;5.75;3.27;;;;;;;25.76;46.17;99696.23;1708549;83;21047;-79
2022/06/21 11:21:47;;;;;;;5.30;3.77;;;;;;;25.77;46.08;99699.23;1712244;83;21019;-78
2022/06/21 11:24:35;;;;;;;6.20;4.05;;;;;;;25.78;46.05;99692.48;1698628;81;21086;-79
2022/06/21 11:27:38;;;;;;;6.30;3.70;;;;;;;25.78;46.10;99705.02;1709047;83;21000;-79
2022/06/21 11:30:31;;;;;;;5.62;4.28;;;;;;;25.79;46.09;99701.65;1703622;81;21011;-79
2022/06/21 11:33:27;;;;;;;5.83;3.60;;;;;;;25.78;46.09;99696.66;1731963;81;21043;-79
2022/06/21 11:36:15;;;;;;;4.25;3.75;;;;;;;25.78;46.04;99691.67;1719801;81;21079;-79
2022/06/21 11:38:49;;;;;;;4.30;3.90;;;;;;;25.79;45.96;99683.54;1696158;83;21091;-80
2022/06/21 11:42:05;;;;;;;3.85;3.42;;;;;;;25.80;46.05;99686.55;1711932;81;21079;-79
2022/06/21 11:44:37;;;;;;;3.72;3.33;;;;;;;25.79;45.98;99687.72;1701069;83;21123;-82
2022/06/21 11:47:32;;;;;;;4.50;3.87;;;;;;;25.78;45.87;99684.12;1708314;83;21110;-79
2022/06/21 11:50:25;;;;;;;6.33;3.40;;;;;;;25.79;45.85;99683.54;1700573;80;21905;-80
2022/06/21 11:53:15;;;;;;;5.05;3.58;;;;;;;25.79;45.90;99684.34;1709894;83;20948;-79
2022/06/21 11:56:24;;;;;;;9.05;3.62;;;;;;;25.79;45.96;99678.77;1709294;82;21095;-79
2022/06/21 11:59:19;;;;;;;3.72;3.20;;;;;;;25.80;45.95;99667.81;1688328;84;21039;-79
2022/06/21 12:02:03;;;;;;;4.47;3.17;;;;;;;25.84;45.79;99667.27;1683643;84;21076;-78
2022/06/21 12:05:02;;;;;;;12.05;3.72;;;;;;;25.84;45.78;99671.44;1692482;83;21064;-80
2022/06/21 12:07:51;;;;;;;6.45;3.58;;;;;;;25.86;45.70;99664.91;1692538;82;21549;-79
2022/06/21 12:10:25;;;;;;;3.95;3.35;;;;;;;25.87;45.64;99665.13;1697006;82;21102;-79
2022/06/21 12:13:17;;;;;;;4.25;3.20;;;;;;;25.86;45.68;99660.73;1710893;83;37900;-78
2022/06/21 12:16:04;;;;;;;5.15;3.60;;;;;;;25.86;45.66;99662.12;1683329;85;21085;-79
2022/06/21 12:18:33;;;;;;;3.90;3.50;;;;;;;25.86;45.72;99655.16;1656844;85;21123;-79
2022/06/21 12:21:11;;;;;;;4.50;2.83;;;;;;;25.86;45.79;99648.78;1662734;84;21068;-79
2022/06/21 12:23:56;;;;;;;4.58;3.30;;;;;;;25.86;45.77;99646.00;1671619;85;21506;-79
2022/06/21 12:26:25;;;;;;;4.10;3.33;;;;;;;25.87;45.71;99654.57;1677109;83;21100;-79
2022/06/21 12:28:57;;;;;;;3.85;3.17;;;;;;;25.87;45.59;99653.18;1668740;83;21116;-79
2022/06/21 12:31:31;;;;;;;4.03;2.90;;;;;;;25.88;45.44;99647.83;1692085;83;21052;-79
2022/06/21 12:34:03;;;;;;;3.85;3.15;;;;;;;25.88;45.40;99643.05;1672648;84;21153;-80
2022/06/21 12:36:38;;;;;;;3.80;3.20;;;;;;;25.92;45.33;99648.66;1691182;83;21616;-79
2022/06/21 12:39:13;;;;;;;4.47;2.92;;;;;;;25.93;45.36;99639.09;1670651;85;21101;-80
2022/06/21 12:42:08;;;;;;;4.05;3.05;;;;;;;25.94;45.28;99630.95;1679364;83;21093;-79
2022/06/21 12:44:55;;;;;;;4.35;3.10;;;;;;;25.93;45.36;99627.36;1681927;83;21233;-79